メインページ
METAR-TAF:

METAR-TAF

空港 :

ジッダ, サウジアラビア

キング・アブドゥルアズィーズ国際空港

緯度: 21-42N, 経度: 039-11E, 海抜: 15m

現時点の気象観測

当レポートは24分前の06:00(UTC)に作成
北東の風 6kt
気温 26°C
湿度 54%
気圧 1015 hPa
視程: 8000m
高度4000ftの雲はほとんどない

METAR: OEJN 140600Z 04006KT 8000 FEW040 26/16 Q1015 NOSIG

時間: 09:24 (06:24 UTC)

予報

当レポートは2時間24分前の04:00(UTC)に作成
予報は14日の 06時(UTC)から 15日の 12時(UTC)まで有効
北西の風 10kt
視程10km以上
1,500メートル以下は雲なし、積乱雲なし
14日の 16時(UTC)から 14日の 18時(UTC)まで徐々に
北東の風 5kt

TAF: OEJN 140400Z 1406/1512 31010KT CAVOK BECMG 1416/1418 04005KT

4,000以上の空港の気象観測と天気予報(METAR報とTAF報)

利用可能な観測所は地図上に黄色い丸と赤い丸で示す。

丸の上にカーソルを重ねると観測所名を参照できる。

次にクリックすると気象観測と天気予報を参照できる。

マップの切り替え:黒色「×」印の緑ボタンをクリックして拡大、「-」印の緑ボタンをクリックして縮小、緑色の三角印をクリックして隣りの地図に切り替え


METAR-TAF: